sensor_id;sensor_type;location;lat;lon;timestamp;P1;P2;P0
70922;PMS5003;58573;28.942;-13.688;2023-04-07T00:00:38;15;10;
70922;PMS5003;58573;28.942;-13.688;2023-04-07T00:03:04;16;14;
70922;PMS5003;58573;28.942;-13.688;2023-04-07T00:05:30;13;10;
70922;PMS5003;58573;28.942;-13.688;2023-04-07T00:07:55;12;10;
70922;PMS5003;58573;28.942;-13.688;2023-04-07T00:10:21;14;12;
70922;PMS5003;58573;28.942;-13.688;2023-04-07T00:12:46;10;8;
70922;PMS5003;58573;28.942;-13.688;2023-04-07T00:15:12;12;9;
70922;PMS5003;58573;28.942;-13.688;2023-04-07T00:17:38;17;11;
70922;PMS5003;58573;28.942;-13.688;2023-04-07T00:20:03;19;14;
70922;PMS5003;58573;28.942;-13.688;2023-04-07T00:22:28;11;11;
70922;PMS5003;58573;28.942;-13.688;2023-04-07T00:24:53;12;9;
70922;PMS5003;58573;28.942;-13.688;2023-04-07T00:27:19;16;14;
70922;PMS5003;58573;28.942;-13.688;2023-04-07T00:29:44;8;7;
70922;PMS5003;58573;28.942;-13.688;2023-04-07T00:32:10;13;9;
70922;PMS5003;58573;28.942;-13.688;2023-04-07T00:34:35;14;11;
70922;PMS5003;58573;28.942;-13.688;2023-04-07T00:37:01;11;10;
70922;PMS5003;58573;28.942;-13.688;2023-04-07T00:39:26;10;9;
70922;PMS5003;58573;28.942;-13.688;2023-04-07T00:41:51;13;13;
70922;PMS5003;58573;28.942;-13.688;2023-04-07T00:44:17;7;6;
70922;PMS5003;58573;28.942;-13.688;2023-04-07T00:46:42;10;9;
70922;PMS5003;58573;28.942;-13.688;2023-04-07T00:49:07;10;9;
70922;PMS5003;58573;28.942;-13.688;2023-04-07T00:51:33;9;8;
70922;PMS5003;58573;28.942;-13.688;2023-04-07T00:53:58;13;11;
70922;PMS5003;58573;28.942;-13.688;2023-04-07T00:56:24;12;10;
70922;PMS5003;58573;28.942;-13.688;2023-04-07T00:58:49;9;7;
70922;PMS5003;58573;28.942;-13.688;2023-04-07T01:01:18;11;10;
70922;PMS5003;58573;28.942;-13.688;2023-04-07T01:03:42;12;11;
70922;PMS5003;58573;28.942;-13.688;2023-04-07T01:06:07;13;11;
70922;PMS5003;58573;28.942;-13.688;2023-04-07T01:08:33;8;7;
70922;PMS5003;58573;28.942;-13.688;2023-04-07T01:10:59;9;8;
70922;PMS5003;58573;28.942;-13.688;2023-04-07T01:13:25;10;9;
70922;PMS5003;58573;28.942;-13.688;2023-04-07T01:15:48;12;9;
70922;PMS5003;58573;28.942;-13.688;2023-04-07T01:18:15;12;10;
70922;PMS5003;58573;28.942;-13.688;2023-04-07T01:20:39;16;12;
70922;PMS5003;58573;28.942;-13.688;2023-04-07T01:23:05;12;9;
70922;PMS5003;58573;28.942;-13.688;2023-04-07T01:25:37;13;11;
70922;PMS5003;58573;28.942;-13.688;2023-04-07T01:28:09;9;8;
70922;PMS5003;58573;28.942;-13.688;2023-04-07T01:30:21;12;11;
70922;PMS5003;58573;28.942;-13.688;2023-04-07T01:32:49;10;8;
70922;PMS5003;58573;28.942;-13.688;2023-04-07T01:35:12;15;11;
70922;PMS5003;58573;28.942;-13.688;2023-04-07T01:37:38;9;7;
70922;PMS5003;58573;28.942;-13.688;2023-04-07T01:40:03;11;10;
70922;PMS5003;58573;28.942;-13.688;2023-04-07T01:42:28;12;9;
70922;PMS5003;58573;28.942;-13.688;2023-04-07T01:44:54;19;15;
70922;PMS5003;58573;28.942;-13.688;2023-04-07T01:47:20;11;7;
70922;PMS5003;58573;28.942;-13.688;2023-04-07T01:49:45;10;8;
70922;PMS5003;58573;28.942;-13.688;2023-04-07T01:52:11;7;7;
70922;PMS5003;58573;28.942;-13.688;2023-04-07T01:54:36;12;8;
70922;PMS5003;58573;28.942;-13.688;2023-04-07T01:57:02;18;15;
70922;PMS5003;58573;28.942;-13.688;2023-04-07T01:59:27;10;8;
70922;PMS5003;58573;28.942;-13.688;2023-04-07T02:01:52;10;9;
70922;PMS5003;58573;28.942;-13.688;2023-04-07T02:04:20;10;9;
70922;PMS5003;58573;28.942;-13.688;2023-04-07T02:06:46;14;11;
70922;PMS5003;58573;28.942;-13.688;2023-04-07T02:09:10;10;9;
70922;PMS5003;58573;28.942;-13.688;2023-04-07T02:11:35;7;6;
70922;PMS5003;58573;28.942;-13.688;2023-04-07T02:14:00;16;13;
70922;PMS5003;58573;28.942;-13.688;2023-04-07T02:16:26;10;10;
70922;PMS5003;58573;28.942;-13.688;2023-04-07T02:18:51;16;13;
70922;PMS5003;58573;28.942;-13.688;2023-04-07T02:21:17;18;14;
70922;PMS5003;58573;28.942;-13.688;2023-04-07T02:23:43;13;11;
70922;PMS5003;58573;28.942;-13.688;2023-04-07T02:26:08;12;10;
70922;PMS5003;58573;28.942;-13.688;2023-04-07T02:28:33;9;6;
70922;PMS5003;58573;28.942;-13.688;2023-04-07T02:30:58;11;10;
70922;PMS5003;58573;28.942;-13.688;2023-04-07T02:33:24;12;11;
70922;PMS5003;58573;28.942;-13.688;2023-04-07T02:35:49;11;9;
70922;PMS5003;58573;28.942;-13.688;2023-04-07T02:38:15;11;9;
70922;PMS5003;58573;28.942;-13.688;2023-04-07T02:40:41;9;8;
70922;PMS5003;58573;28.942;-13.688;2023-04-07T02:43:06;11;9;
70922;PMS5003;58573;28.942;-13.688;2023-04-07T02:45:32;9;8;
70922;PMS5003;58573;28.942;-13.688;2023-04-07T02:47:58;14;12;
70922;PMS5003;58573;28.942;-13.688;2023-04-07T02:50:23;9;8;
70922;PMS5003;58573;28.942;-13.688;2023-04-07T02:52:49;18;14;
70922;PMS5003;58573;28.942;-13.688;2023-04-07T02:55:14;10;9;
70922;PMS5003;58573;28.942;-13.688;2023-04-07T02:57:40;11;7;
70922;PMS5003;58573;28.942;-13.688;2023-04-07T03:00:06;13;12;
70922;PMS5003;58573;28.942;-13.688;2023-04-07T03:02:31;15;11;
70922;PMS5003;58573;28.942;-13.688;2023-04-07T03:04:57;12;11;
70922;PMS5003;58573;28.942;-13.688;2023-04-07T03:07:22;12;11;
70922;PMS5003;58573;28.942;-13.688;2023-04-07T03:09:47;12;9;
70922;PMS5003;58573;28.942;-13.688;2023-04-07T03:12:12;10;7;
70922;PMS5003;58573;28.942;-13.688;2023-04-07T03:14:37;9;7;
70922;PMS5003;58573;28.942;-13.688;2023-04-07T03:17:03;13;10;
70922;PMS5003;58573;28.942;-13.688;2023-04-07T03:19:28;9;8;
70922;PMS5003;58573;28.942;-13.688;2023-04-07T03:21:53;12;11;
70922;PMS5003;58573;28.942;-13.688;2023-04-07T03:24:19;10;8;
70922;PMS5003;58573;28.942;-13.688;2023-04-07T03:26:45;12;11;
70922;PMS5003;58573;28.942;-13.688;2023-04-07T03:29:10;13;9;
70922;PMS5003;58573;28.942;-13.688;2023-04-07T03:31:35;11;9;
70922;PMS5003;58573;28.942;-13.688;2023-04-07T03:34:00;13;11;
70922;PMS5003;58573;28.942;-13.688;2023-04-07T03:36:26;13;13;
70922;PMS5003;58573;28.942;-13.688;2023-04-07T03:38:52;12;11;
70922;PMS5003;58573;28.942;-13.688;2023-04-07T03:41:17;11;7;
70922;PMS5003;58573;28.942;-13.688;2023-04-07T03:43:42;15;13;
70922;PMS5003;58573;28.942;-13.688;2023-04-07T03:46:07;13;12;
70922;PMS5003;58573;28.942;-13.688;2023-04-07T03:48:33;15;11;
70922;PMS5003;58573;28.942;-13.688;2023-04-07T03:50:59;14;10;
70922;PMS5003;58573;28.942;-13.688;2023-04-07T03:53:24;9;8;
70922;PMS5003;58573;28.942;-13.688;2023-04-07T03:55:49;12;11;
70922;PMS5003;58573;28.942;-13.688;2023-04-07T03:58:15;9;8;
70922;PMS5003;58573;28.942;-13.688;2023-04-07T04:00:40;11;9;
70922;PMS5003;58573;28.942;-13.688;2023-04-07T04:03:07;12;8;
70922;PMS5003;58573;28.942;-13.688;2023-04-07T04:05:31;14;11;
70922;PMS5003;58573;28.942;-13.688;2023-04-07T04:07:56;12;9;
70922;PMS5003;58573;28.942;-13.688;2023-04-07T04:10:22;11;10;
70922;PMS5003;58573;28.942;-13.688;2023-04-07T04:12:47;9;9;
70922;PMS5003;58573;28.942;-13.688;2023-04-07T04:15:13;13;10;
70922;PMS5003;58573;28.942;-13.688;2023-04-07T04:17:38;13;8;
70922;PMS5003;58573;28.942;-13.688;2023-04-07T04:20:04;16;12;
70922;PMS5003;58573;28.942;-13.688;2023-04-07T04:22:29;12;11;
70922;PMS5003;58573;28.942;-13.688;2023-04-07T04:24:54;13;10;
70922;PMS5003;58573;28.942;-13.688;2023-04-07T04:27:20;17;14;
70922;PMS5003;58573;28.942;-13.688;2023-04-07T04:29:45;13;9;
70922;PMS5003;58573;28.942;-13.688;2023-04-07T04:32:11;16;13;
70922;PMS5003;58573;28.942;-13.688;2023-04-07T04:34:37;8;7;
70922;PMS5003;58573;28.942;-13.688;2023-04-07T04:37:02;10;9;
70922;PMS5003;58573;28.942;-13.688;2023-04-07T04:39:27;14;10;
70922;PMS5003;58573;28.942;-13.688;2023-04-07T04:41:53;12;10;
70922;PMS5003;58573;28.942;-13.688;2023-04-07T04:44:18;9;8;
70922;PMS5003;58573;28.942;-13.688;2023-04-07T04:46:44;13;12;
70922;PMS5003;58573;28.942;-13.688;2023-04-07T04:49:09;15;15;
70922;PMS5003;58573;28.942;-13.688;2023-04-07T04:51:35;13;11;
70922;PMS5003;58573;28.942;-13.688;2023-04-07T04:54:00;12;9;
70922;PMS5003;58573;28.942;-13.688;2023-04-07T04:56:26;11;10;
70922;PMS5003;58573;28.942;-13.688;2023-04-07T04:58:51;13;10;
70922;PMS5003;58573;28.942;-13.688;2023-04-07T05:01:17;14;11;
70922;PMS5003;58573;28.942;-13.688;2023-04-07T05:03:42;16;14;
70922;PMS5003;58573;28.942;-13.688;2023-04-07T05:06:07;13;11;
70922;PMS5003;58573;28.942;-13.688;2023-04-07T05:08:32;14;11;
70922;PMS5003;58573;28.942;-13.688;2023-04-07T05:10:58;9;9;
70922;PMS5003;58573;28.942;-13.688;2023-04-07T05:13:23;13;11;
70922;PMS5003;58573;28.942;-13.688;2023-04-07T05:15:48;13;11;
70922;PMS5003;58573;28.942;-13.688;2023-04-07T05:18:14;15;14;
70922;PMS5003;58573;28.942;-13.688;2023-04-07T05:20:39;12;9;
70922;PMS5003;58573;28.942;-13.688;2023-04-07T05:23:04;10;8;
70922;PMS5003;58573;28.942;-13.688;2023-04-07T05:25:30;16;12;
70922;PMS5003;58573;28.942;-13.688;2023-04-07T05:27:56;8;7;
70922;PMS5003;58573;28.942;-13.688;2023-04-07T05:30:21;13;9;
70922;PMS5003;58573;28.942;-13.688;2023-04-07T05:32:47;17;12;
70922;PMS5003;58573;28.942;-13.688;2023-04-07T05:35:12;9;8;
70922;PMS5003;58573;28.942;-13.688;2023-04-07T05:37:37;15;12;
70922;PMS5003;58573;28.942;-13.688;2023-04-07T05:40:03;13;9;
70922;PMS5003;58573;28.942;-13.688;2023-04-07T05:42:28;11;8;
70922;PMS5003;58573;28.942;-13.688;2023-04-07T05:44:54;14;11;
70922;PMS5003;58573;28.942;-13.688;2023-04-07T05:47:20;13;11;
70922;PMS5003;58573;28.942;-13.688;2023-04-07T05:49:45;12;12;
70922;PMS5003;58573;28.942;-13.688;2023-04-07T05:52:11;12;11;
70922;PMS5003;58573;28.942;-13.688;2023-04-07T05:54:36;10;9;
70922;PMS5003;58573;28.942;-13.688;2023-04-07T05:57:01;14;14;
70922;PMS5003;58573;28.942;-13.688;2023-04-07T05:59:26;11;10;
70922;PMS5003;58573;28.942;-13.688;2023-04-07T06:01:52;11;10;
70922;PMS5003;58573;28.942;-13.688;2023-04-07T06:04:18;12;12;
70922;PMS5003;58573;28.942;-13.688;2023-04-07T06:06:43;17;13;
70922;PMS5003;58573;28.942;-13.688;2023-04-07T06:09:08;11;10;
70922;PMS5003;58573;28.942;-13.688;2023-04-07T06:11:34;17;14;
70922;PMS5003;58573;28.942;-13.688;2023-04-07T06:13:59;12;11;
70922;PMS5003;58573;28.942;-13.688;2023-04-07T06:16:25;12;10;
70922;PMS5003;58573;28.942;-13.688;2023-04-07T06:18:50;9;8;
70922;PMS5003;58573;28.942;-13.688;2023-04-07T06:21:16;13;11;
70922;PMS5003;58573;28.942;-13.688;2023-04-07T06:23:41;13;13;
70922;PMS5003;58573;28.942;-13.688;2023-04-07T06:26:09;15;11;
70922;PMS5003;58573;28.942;-13.688;2023-04-07T06:28:32;15;12;
70922;PMS5003;58573;28.942;-13.688;2023-04-07T06:30:57;9;8;
70922;PMS5003;58573;28.942;-13.688;2023-04-07T06:33:23;11;11;
70922;PMS5003;58573;28.942;-13.688;2023-04-07T06:35:48;11;9;
70922;PMS5003;58573;28.942;-13.688;2023-04-07T06:38:14;11;10;
70922;PMS5003;58573;28.942;-13.688;2023-04-07T06:40:39;12;10;
70922;PMS5003;58573;28.942;-13.688;2023-04-07T06:43:04;13;9;
70922;PMS5003;58573;28.942;-13.688;2023-04-07T06:45:30;18;14;
70922;PMS5003;58573;28.942;-13.688;2023-04-07T06:47:56;13;11;
70922;PMS5003;58573;28.942;-13.688;2023-04-07T06:50:21;14;11;
70922;PMS5003;58573;28.942;-13.688;2023-04-07T06:52:47;15;12;
70922;PMS5003;58573;28.942;-13.688;2023-04-07T06:55:12;16;13;
70922;PMS5003;58573;28.942;-13.688;2023-04-07T06:57:37;13;12;
70922;PMS5003;58573;28.942;-13.688;2023-04-07T07:00:03;11;10;
70922;PMS5003;58573;28.942;-13.688;2023-04-07T07:02:28;12;11;
70922;PMS5003;58573;28.942;-13.688;2023-04-07T07:04:53;18;15;
70922;PMS5003;58573;28.942;-13.688;2023-04-07T07:07:19;14;12;
70922;PMS5003;58573;28.942;-13.688;2023-04-07T07:09:44;13;11;
70922;PMS5003;58573;28.942;-13.688;2023-04-07T07:12:10;18;16;
70922;PMS5003;58573;28.942;-13.688;2023-04-07T07:14:35;16;15;
70922;PMS5003;58573;28.942;-13.688;2023-04-07T07:17:01;15;12;
70922;PMS5003;58573;28.942;-13.688;2023-04-07T07:19:26;15;12;
70922;PMS5003;58573;28.942;-13.688;2023-04-07T07:21:52;16;10;
70922;PMS5003;58573;28.942;-13.688;2023-04-07T07:24:17;12;11;
70922;PMS5003;58573;28.942;-13.688;2023-04-07T07:26:42;11;10;
70922;PMS5003;58573;28.942;-13.688;2023-04-07T07:29:07;16;13;
70922;PMS5003;58573;28.942;-13.688;2023-04-07T07:31:33;14;14;
70922;PMS5003;58573;28.942;-13.688;2023-04-07T07:33:59;14;12;
70922;PMS5003;58573;28.942;-13.688;2023-04-07T07:36:24;10;8;
70922;PMS5003;58573;28.942;-13.688;2023-04-07T07:38:50;13;9;
70922;PMS5003;58573;28.942;-13.688;2023-04-07T07:41:16;13;10;
70922;PMS5003;58573;28.942;-13.688;2023-04-07T07:43:41;9;8;
70922;PMS5003;58573;28.942;-13.688;2023-04-07T07:46:07;13;10;
70922;PMS5003;58573;28.942;-13.688;2023-04-07T07:48:32;11;10;
70922;PMS5003;58573;28.942;-13.688;2023-04-07T07:50:58;14;11;
70922;PMS5003;58573;28.942;-13.688;2023-04-07T07:53:24;11;9;
70922;PMS5003;58573;28.942;-13.688;2023-04-07T07:55:49;12;11;
70922;PMS5003;58573;28.942;-13.688;2023-04-07T07:58:15;11;10;
70922;PMS5003;58573;28.942;-13.688;2023-04-07T08:00:40;8;8;
70922;PMS5003;58573;28.942;-13.688;2023-04-07T08:03:05;7;6;
70922;PMS5003;58573;28.942;-13.688;2023-04-07T08:05:31;10;8;
70922;PMS5003;58573;28.942;-13.688;2023-04-07T08:07:56;9;8;
70922;PMS5003;58573;28.942;-13.688;2023-04-07T08:10:22;8;7;
70922;PMS5003;58573;28.942;-13.688;2023-04-07T08:12:47;13;12;
70922;PMS5003;58573;28.942;-13.688;2023-04-07T08:15:13;12;10;
70922;PMS5003;58573;28.942;-13.688;2023-04-07T08:17:38;11;9;
70922;PMS5003;58573;28.942;-13.688;2023-04-07T08:20:04;16;10;
70922;PMS5003;58573;28.942;-13.688;2023-04-07T08:22:29;13;12;
70922;PMS5003;58573;28.942;-13.688;2023-04-07T08:24:55;7;7;
70922;PMS5003;58573;28.942;-13.688;2023-04-07T08:27:20;11;8;
70922;PMS5003;58573;28.942;-13.688;2023-04-07T08:29:50;10;10;
70922;PMS5003;58573;28.942;-13.688;2023-04-07T08:32:11;7;6;
70922;PMS5003;58573;28.942;-13.688;2023-04-07T08:34:37;9;8;
70922;PMS5003;58573;28.942;-13.688;2023-04-07T08:37:02;9;5;
70922;PMS5003;58573;28.942;-13.688;2023-04-07T08:39:27;12;10;
70922;PMS5003;58573;28.942;-13.688;2023-04-07T08:41:53;10;9;
70922;PMS5003;58573;28.942;-13.688;2023-04-07T08:44:18;11;9;
70922;PMS5003;58573;28.942;-13.688;2023-04-07T08:46:44;10;10;
70922;PMS5003;58573;28.942;-13.688;2023-04-07T08:49:10;11;10;
70922;PMS5003;58573;28.942;-13.688;2023-04-07T08:51:34;10;6;
70922;PMS5003;58573;28.942;-13.688;2023-04-07T08:54:02;13;12;
70922;PMS5003;58573;28.942;-13.688;2023-04-07T08:56:25;8;8;
70922;PMS5003;58573;28.942;-13.688;2023-04-07T08:58:50;9;9;
70922;PMS5003;58573;28.942;-13.688;2023-04-07T09:01:15;9;7;
70922;PMS5003;58573;28.942;-13.688;2023-04-07T09:03:41;8;7;
70922;PMS5003;58573;28.942;-13.688;2023-04-07T09:06:06;12;9;
70922;PMS5003;58573;28.942;-13.688;2023-04-07T09:08:31;12;8;
70922;PMS5003;58573;28.942;-13.688;2023-04-07T09:10:57;12;11;
70922;PMS5003;58573;28.942;-13.688;2023-04-07T09:13:21;13;13;
70922;PMS5003;58573;28.942;-13.688;2023-04-07T09:15:47;7;6;
70922;PMS5003;58573;28.942;-13.688;2023-04-07T09:18:12;7;6;
70922;PMS5003;58573;28.942;-13.688;2023-04-07T09:23:02;8;6;
70922;PMS5003;58573;28.942;-13.688;2023-04-07T09:25:28;9;7;
70922;PMS5003;58573;28.942;-13.688;2023-04-07T09:27:55;11;8;
70922;PMS5003;58573;28.942;-13.688;2023-04-07T09:30:19;9;8;
70922;PMS5003;58573;28.942;-13.688;2023-04-07T09:32:44;8;8;
70922;PMS5003;58573;28.942;-13.688;2023-04-07T09:35:09;13;11;
70922;PMS5003;58573;28.942;-13.688;2023-04-07T09:37:34;9;9;
70922;PMS5003;58573;28.942;-13.688;2023-04-07T09:40:00;15;13;
70922;PMS5003;58573;28.942;-13.688;2023-04-07T09:42:25;8;7;
70922;PMS5003;58573;28.942;-13.688;2023-04-07T09:44:51;12;8;
70922;PMS5003;58573;28.942;-13.688;2023-04-07T09:47:16;7;7;
70922;PMS5003;58573;28.942;-13.688;2023-04-07T09:49:48;6;5;
70922;PMS5003;58573;28.942;-13.688;2023-04-07T09:52:06;6;5;
70922;PMS5003;58573;28.942;-13.688;2023-04-07T09:54:33;7;5;
70922;PMS5003;58573;28.942;-13.688;2023-04-07T09:56:57;7;6;
70922;PMS5003;58573;28.942;-13.688;2023-04-07T09:59:23;10;8;
70922;PMS5003;58573;28.942;-13.688;2023-04-07T10:01:48;9;7;
70922;PMS5003;58573;28.942;-13.688;2023-04-07T10:04:14;10;7;
70922;PMS5003;58573;28.942;-13.688;2023-04-07T10:06:39;6;6;
70922;PMS5003;58573;28.942;-13.688;2023-04-07T10:09:04;9;8;
70922;PMS5003;58573;28.942;-13.688;2023-04-07T10:11:30;8;5;
70922;PMS5003;58573;28.942;-13.688;2023-04-07T10:13:55;12;7;
70922;PMS5003;58573;28.942;-13.688;2023-04-07T10:16:20;7;6;
70922;PMS5003;58573;28.942;-13.688;2023-04-07T10:18:46;8;8;
70922;PMS5003;58573;28.942;-13.688;2023-04-07T10:21:11;8;7;
70922;PMS5003;58573;28.942;-13.688;2023-04-07T10:23:42;7;5;
70922;PMS5003;58573;28.942;-13.688;2023-04-07T10:26:02;9;7;
70922;PMS5003;58573;28.942;-13.688;2023-04-07T10:28:28;9;8;
70922;PMS5003;58573;28.942;-13.688;2023-04-07T10:30:53;9;7;
70922;PMS5003;58573;28.942;-13.688;2023-04-07T10:38:10;7;7;
70922;PMS5003;58573;28.942;-13.688;2023-04-07T10:40:35;6;6;
70922;PMS5003;58573;28.942;-13.688;2023-04-07T10:42:59;5;5;
70922;PMS5003;58573;28.942;-13.688;2023-04-07T10:50:18;8;6;
70922;PMS5003;58573;28.942;-13.688;2023-04-07T10:52:41;7;6;
70922;PMS5003;58573;28.942;-13.688;2023-04-07T10:57:31;6;5;
70922;PMS5003;58573;28.942;-13.688;2023-04-07T11:04:48;6;4;
70922;PMS5003;58573;28.942;-13.688;2023-04-07T11:07:13;6;5;
70922;PMS5003;58573;28.942;-13.688;2023-04-07T11:09:39;7;6;
70922;PMS5003;58573;28.942;-13.688;2023-04-07T11:12:04;7;5;
70922;PMS5003;58573;28.942;-13.688;2023-04-07T11:14:29;5;4;
70922;PMS5003;58573;28.942;-13.688;2023-04-07T11:16:55;4;4;
70922;PMS5003;58573;28.942;-13.688;2023-04-07T11:19:20;5;4;
70922;PMS5003;58573;28.942;-13.688;2023-04-07T11:21:45;5;4;
70922;PMS5003;58573;28.942;-13.688;2023-04-07T11:24:10;7;6;
70922;PMS5003;58573;28.942;-13.688;2023-04-07T11:26:36;5;5;
70922;PMS5003;58573;28.942;-13.688;2023-04-07T11:29:01;7;5;
70922;PMS5003;58573;28.942;-13.688;2023-04-07T11:31:27;9;6;
70922;PMS5003;58573;28.942;-13.688;2023-04-07T11:33:52;8;7;
70922;PMS5003;58573;28.942;-13.688;2023-04-07T11:36:24;6;6;
70922;PMS5003;58573;28.942;-13.688;2023-04-07T11:38:42;6;6;
70922;PMS5003;58573;28.942;-13.688;2023-04-07T11:41:09;8;5;
70922;PMS5003;58573;28.942;-13.688;2023-04-07T11:43:32;8;7;
70922;PMS5003;58573;28.942;-13.688;2023-04-07T11:46:04;6;5;
70922;PMS5003;58573;28.942;-13.688;2023-04-07T11:48:27;6;5;
70922;PMS5003;58573;28.942;-13.688;2023-04-07T11:50:48;5;4;
70922;PMS5003;58573;28.942;-13.688;2023-04-07T11:53:14;6;6;
70922;PMS5003;58573;28.942;-13.688;2023-04-07T11:55:39;7;5;
70922;PMS5003;58573;28.942;-13.688;2023-04-07T11:58:05;8;6;
70922;PMS5003;58573;28.942;-13.688;2023-04-07T12:00:30;7;7;
70922;PMS5003;58573;28.942;-13.688;2023-04-07T12:02:55;5;4;
70922;PMS5003;58573;28.942;-13.688;2023-04-07T12:05:21;5;5;
70922;PMS5003;58573;28.942;-13.688;2023-04-07T12:10:17;7;6;
70922;PMS5003;58573;28.942;-13.688;2023-04-07T12:12:36;5;3;
70922;PMS5003;58573;28.942;-13.688;2023-04-07T12:15:02;3;3;
70922;PMS5003;58573;28.942;-13.688;2023-04-07T12:17:27;5;5;
70922;PMS5003;58573;28.942;-13.688;2023-04-07T12:19:52;5;4;
70922;PMS5003;58573;28.942;-13.688;2023-04-07T12:22:18;5;4;
70922;PMS5003;58573;28.942;-13.688;2023-04-07T12:24:43;7;6;
70922;PMS5003;58573;28.942;-13.688;2023-04-07T12:27:09;5;4;
70922;PMS5003;58573;28.942;-13.688;2023-04-07T12:29:34;5;5;
70922;PMS5003;58573;28.942;-13.688;2023-04-07T12:31:59;3;2;
70922;PMS5003;58573;28.942;-13.688;2023-04-07T12:34:24;2;2;
70922;PMS5003;58573;28.942;-13.688;2023-04-07T12:36:50;4;3;
70922;PMS5003;58573;28.942;-13.688;2023-04-07T12:39:15;5;3;
70922;PMS5003;58573;28.942;-13.688;2023-04-07T12:41:40;4;3;
70922;PMS5003;58573;28.942;-13.688;2023-04-07T12:44:06;6;5;
70922;PMS5003;58573;28.942;-13.688;2023-04-07T12:46:31;4;4;
70922;PMS5003;58573;28.942;-13.688;2023-04-07T12:48:56;2;2;
70922;PMS5003;58573;28.942;-13.688;2023-04-07T12:51:22;6;5;
70922;PMS5003;58573;28.942;-13.688;2023-04-07T12:53:47;4;4;
70922;PMS5003;58573;28.942;-13.688;2023-04-07T12:56:12;4;3;
70922;PMS5003;58573;28.942;-13.688;2023-04-07T12:58:37;3;2;
70922;PMS5003;58573;28.942;-13.688;2023-04-07T13:01:03;3;2;
70922;PMS5003;58573;28.942;-13.688;2023-04-07T13:03:28;5;4;
70922;PMS5003;58573;28.942;-13.688;2023-04-07T13:05:53;4;4;
70922;PMS5003;58573;28.942;-13.688;2023-04-07T13:08:18;1;1;
70922;PMS5003;58573;28.942;-13.688;2023-04-07T13:10:44;6;5;
70922;PMS5003;58573;28.942;-13.688;2023-04-07T13:13:09;2;2;
70922;PMS5003;58573;28.942;-13.688;2023-04-07T13:15:35;8;7;
70922;PMS5003;58573;28.942;-13.688;2023-04-07T13:18:00;5;4;
70922;PMS5003;58573;28.942;-13.688;2023-04-07T13:20:26;6;6;
70922;PMS5003;58573;28.942;-13.688;2023-04-07T13:22:52;5;5;
70922;PMS5003;58573;28.942;-13.688;2023-04-07T13:25:17;2;2;
70922;PMS5003;58573;28.942;-13.688;2023-04-07T13:27:42;5;5;
70922;PMS5003;58573;28.942;-13.688;2023-04-07T13:30:08;5;5;
70922;PMS5003;58573;28.942;-13.688;2023-04-07T13:32:33;4;4;
70922;PMS5003;58573;28.942;-13.688;2023-04-07T13:34:58;5;4;
70922;PMS5003;58573;28.942;-13.688;2023-04-07T13:37:23;3;3;
70922;PMS5003;58573;28.942;-13.688;2023-04-07T13:39:49;5;4;
70922;PMS5003;58573;28.942;-13.688;2023-04-07T13:42:14;4;3;
70922;PMS5003;58573;28.942;-13.688;2023-04-07T13:44:39;3;3;
70922;PMS5003;58573;28.942;-13.688;2023-04-07T13:47:05;3;3;
70922;PMS5003;58573;28.942;-13.688;2023-04-07T13:49:30;5;3;
70922;PMS5003;58573;28.942;-13.688;2023-04-07T13:51:56;7;5;
70922;PMS5003;58573;28.942;-13.688;2023-04-07T13:54:21;3;3;
70922;PMS5003;58573;28.942;-13.688;2023-04-07T13:56:46;3;2;
70922;PMS5003;58573;28.942;-13.688;2023-04-07T13:59:12;3;2;
70922;PMS5003;58573;28.942;-13.688;2023-04-07T14:01:37;4;3;
70922;PMS5003;58573;28.942;-13.688;2023-04-07T14:04:02;6;4;
70922;PMS5003;58573;28.942;-13.688;2023-04-07T14:06:27;6;5;
70922;PMS5003;58573;28.942;-13.688;2023-04-07T14:08:53;4;3;
70922;PMS5003;58573;28.942;-13.688;2023-04-07T14:11:18;8;6;
70922;PMS5003;58573;28.942;-13.688;2023-04-07T14:13:43;5;4;
70922;PMS5003;58573;28.942;-13.688;2023-04-07T14:16:08;6;4;
70922;PMS5003;58573;28.942;-13.688;2023-04-07T14:18:34;3;3;
70922;PMS5003;58573;28.942;-13.688;2023-04-07T14:20:59;4;4;
70922;PMS5003;58573;28.942;-13.688;2023-04-07T14:23:24;6;5;
70922;PMS5003;58573;28.942;-13.688;2023-04-07T14:25:49;8;6;
70922;PMS5003;58573;28.942;-13.688;2023-04-07T14:28:15;4;2;
70922;PMS5003;58573;28.942;-13.688;2023-04-07T14:30:40;5;3;
70922;PMS5003;58573;28.942;-13.688;2023-04-07T14:33:05;5;3;
70922;PMS5003;58573;28.942;-13.688;2023-04-07T14:35:30;5;5;
70922;PMS5003;58573;28.942;-13.688;2023-04-07T14:37:56;4;3;
70922;PMS5003;58573;28.942;-13.688;2023-04-07T14:40:21;6;6;
70922;PMS5003;58573;28.942;-13.688;2023-04-07T14:42:46;5;5;
70922;PMS5003;58573;28.942;-13.688;2023-04-07T14:45:12;6;5;
70922;PMS5003;58573;28.942;-13.688;2023-04-07T14:47:37;7;7;
70922;PMS5003;58573;28.942;-13.688;2023-04-07T14:50:02;6;3;
70922;PMS5003;58573;28.942;-13.688;2023-04-07T14:52:27;7;5;
70922;PMS5003;58573;28.942;-13.688;2023-04-07T14:54:52;4;4;
70922;PMS5003;58573;28.942;-13.688;2023-04-07T14:57:18;6;4;
70922;PMS5003;58573;28.942;-13.688;2023-04-07T14:59:43;4;3;
70922;PMS5003;58573;28.942;-13.688;2023-04-07T15:02:09;7;5;
70922;PMS5003;58573;28.942;-13.688;2023-04-07T15:04:34;8;6;
70922;PMS5003;58573;28.942;-13.688;2023-04-07T15:07:00;6;5;
70922;PMS5003;58573;28.942;-13.688;2023-04-07T15:09:25;5;5;
70922;PMS5003;58573;28.942;-13.688;2023-04-07T15:11:50;4;4;
70922;PMS5003;58573;28.942;-13.688;2023-04-07T15:14:15;7;5;
70922;PMS5003;58573;28.942;-13.688;2023-04-07T15:16:41;8;6;
70922;PMS5003;58573;28.942;-13.688;2023-04-07T15:19:06;5;5;
70922;PMS5003;58573;28.942;-13.688;2023-04-07T15:21:31;5;4;
70922;PMS5003;58573;28.942;-13.688;2023-04-07T15:23:56;3;3;
70922;PMS5003;58573;28.942;-13.688;2023-04-07T15:26:22;8;6;
70922;PMS5003;58573;28.942;-13.688;2023-04-07T15:28:47;4;3;
70922;PMS5003;58573;28.942;-13.688;2023-04-07T15:31:12;4;4;
70922;PMS5003;58573;28.942;-13.688;2023-04-07T15:33:38;5;2;
70922;PMS5003;58573;28.942;-13.688;2023-04-07T15:36:03;4;3;
70922;PMS5003;58573;28.942;-13.688;2023-04-07T15:38:28;3;3;
70922;PMS5003;58573;28.942;-13.688;2023-04-07T15:40:54;8;6;
70922;PMS5003;58573;28.942;-13.688;2023-04-07T15:43:19;4;4;
70922;PMS5003;58573;28.942;-13.688;2023-04-07T15:45:44;3;2;
70922;PMS5003;58573;28.942;-13.688;2023-04-07T15:48:10;6;5;
70922;PMS5003;58573;28.942;-13.688;2023-04-07T15:50:35;3;3;
70922;PMS5003;58573;28.942;-13.688;2023-04-07T15:53:00;3;2;
70922;PMS5003;58573;28.942;-13.688;2023-04-07T15:55:26;6;5;
70922;PMS5003;58573;28.942;-13.688;2023-04-07T15:57:51;5;5;
70922;PMS5003;58573;28.942;-13.688;2023-04-07T16:00:16;5;3;
70922;PMS5003;58573;28.942;-13.688;2023-04-07T16:02:42;7;7;
70922;PMS5003;58573;28.942;-13.688;2023-04-07T16:05:07;3;3;
70922;PMS5003;58573;28.942;-13.688;2023-04-07T16:07:33;3;3;
70922;PMS5003;58573;28.942;-13.688;2023-04-07T16:09:58;5;5;
70922;PMS5003;58573;28.942;-13.688;2023-04-07T16:12:23;5;4;